sensor_id;sensor_type;location;lat;lon;timestamp;temperature;humidity
45685;DHT22;46836;48.388;16.210;2022-11-21T00:01:00;3.80;99.90
45685;DHT22;46836;48.388;16.210;2022-11-21T00:03:27;3.70;99.90
45685;DHT22;46836;48.388;16.210;2022-11-21T00:05:54;3.70;99.90
45685;DHT22;46836;48.388;16.210;2022-11-21T00:08:21;3.60;99.90
45685;DHT22;46836;48.388;16.210;2022-11-21T00:10:48;3.60;99.90
45685;DHT22;46836;48.388;16.210;2022-11-21T00:13:18;3.50;99.90
45685;DHT22;46836;48.388;16.210;2022-11-21T00:15:46;3.40;99.90
45685;DHT22;46836;48.388;16.210;2022-11-21T00:18:13;3.40;99.90
45685;DHT22;46836;48.388;16.210;2022-11-21T00:20:42;3.30;99.90
45685;DHT22;46836;48.388;16.210;2022-11-21T00:23:10;3.30;99.90
45685;DHT22;46836;48.388;16.210;2022-11-21T00:25:37;3.30;99.90
45685;DHT22;46836;48.388;16.210;2022-11-21T00:28:05;3.30;99.90
45685;DHT22;46836;48.388;16.210;2022-11-21T00:30:32;3.20;99.90
45685;DHT22;46836;48.388;16.210;2022-11-21T00:32:59;3.20;99.90
45685;DHT22;46836;48.388;16.210;2022-11-21T00:35:26;3.10;99.90
45685;DHT22;46836;48.388;16.210;2022-11-21T00:37:53;3.00;99.90
45685;DHT22;46836;48.388;16.210;2022-11-21T00:40:20;3.00;99.90
45685;DHT22;46836;48.388;16.210;2022-11-21T00:42:47;3.00;99.90
45685;DHT22;46836;48.388;16.210;2022-11-21T00:45:14;3.00;99.90
45685;DHT22;46836;48.388;16.210;2022-11-21T00:47:49;2.90;99.90
45685;DHT22;46836;48.388;16.210;2022-11-21T00:50:16;2.90;99.90
45685;DHT22;46836;48.388;16.210;2022-11-21T00:52:43;2.90;99.90
45685;DHT22;46836;48.388;16.210;2022-11-21T00:55:10;2.90;99.90
45685;DHT22;46836;48.388;16.210;2022-11-21T00:57:37;2.90;99.90
45685;DHT22;46836;48.388;16.210;2022-11-21T01:00:05;2.90;99.90
45685;DHT22;46836;48.388;16.210;2022-11-21T01:02:32;2.90;99.90
45685;DHT22;46836;48.388;16.210;2022-11-21T01:04:59;2.80;99.90
45685;DHT22;46836;48.388;16.210;2022-11-21T01:07:26;2.80;99.90
45685;DHT22;46836;48.388;16.210;2022-11-21T01:09:53;2.80;99.90
45685;DHT22;46836;48.388;16.210;2022-11-21T01:12:20;2.70;99.90
45685;DHT22;46836;48.388;16.210;2022-11-21T01:14:47;2.70;99.90
45685;DHT22;46836;48.388;16.210;2022-11-21T01:17:14;2.70;99.90
45685;DHT22;46836;48.388;16.210;2022-11-21T01:19:41;2.60;99.90
45685;DHT22;46836;48.388;16.210;2022-11-21T01:22:08;2.60;99.90
45685;DHT22;46836;48.388;16.210;2022-11-21T01:24:35;2.60;99.90
45685;DHT22;46836;48.388;16.210;2022-11-21T01:27:02;2.60;99.90
45685;DHT22;46836;48.388;16.210;2022-11-21T01:29:29;2.60;99.90
45685;DHT22;46836;48.388;16.210;2022-11-21T01:31:56;2.60;99.90
45685;DHT22;46836;48.388;16.210;2022-11-21T01:34:23;2.60;99.90
45685;DHT22;46836;48.388;16.210;2022-11-21T01:36:50;2.60;99.90
45685;DHT22;46836;48.388;16.210;2022-11-21T01:39:18;2.60;99.90
45685;DHT22;46836;48.388;16.210;2022-11-21T01:41:45;2.60;99.90
45685;DHT22;46836;48.388;16.210;2022-11-21T01:44:43;2.60;99.90
45685;DHT22;46836;48.388;16.210;2022-11-21T01:47:11;2.60;99.90
45685;DHT22;46836;48.388;16.210;2022-11-21T01:49:39;2.60;99.90
45685;DHT22;46836;48.388;16.210;2022-11-21T01:52:39;2.60;99.90
45685;DHT22;46836;48.388;16.210;2022-11-21T01:55:08;2.60;99.90
45685;DHT22;46836;48.388;16.210;2022-11-21T01:57:43;2.60;99.90
45685;DHT22;46836;48.388;16.210;2022-11-21T02:00:17;2.50;99.90
45685;DHT22;46836;48.388;16.210;2022-11-21T02:02:53;2.50;99.90
45685;DHT22;46836;48.388;16.210;2022-11-21T02:05:25;2.50;99.90
45685;DHT22;46836;48.388;16.210;2022-11-21T02:07:57;2.60;99.90
45685;DHT22;46836;48.388;16.210;2022-11-21T02:10:28;2.60;99.90
45685;DHT22;46836;48.388;16.210;2022-11-21T02:12:57;2.60;99.90
45685;DHT22;46836;48.388;16.210;2022-11-21T02:15:26;2.70;99.90
45685;DHT22;46836;48.388;16.210;2022-11-21T02:17:54;2.70;99.90
45685;DHT22;46836;48.388;16.210;2022-11-21T02:20:25;2.70;99.90
45685;DHT22;46836;48.388;16.210;2022-11-21T02:25:41;2.60;99.90
45685;DHT22;46836;48.388;16.210;2022-11-21T02:28:14;2.60;99.90
45685;DHT22;46836;48.388;16.210;2022-11-21T02:30:42;2.50;99.90
45685;DHT22;46836;48.388;16.210;2022-11-21T02:33:10;2.50;99.90
45685;DHT22;46836;48.388;16.210;2022-11-21T02:35:38;2.50;99.90
45685;DHT22;46836;48.388;16.210;2022-11-21T02:38:19;2.50;99.90
45685;DHT22;46836;48.388;16.210;2022-11-21T02:41:12;2.50;99.90
45685;DHT22;46836;48.388;16.210;2022-11-21T02:43:45;2.50;99.90
45685;DHT22;46836;48.388;16.210;2022-11-21T02:46:14;2.50;99.90
45685;DHT22;46836;48.388;16.210;2022-11-21T02:48:42;2.60;99.90
45685;DHT22;46836;48.388;16.210;2022-11-21T02:51:09;2.70;99.90
45685;DHT22;46836;48.388;16.210;2022-11-21T02:53:36;2.70;99.90
45685;DHT22;46836;48.388;16.210;2022-11-21T02:56:03;2.80;99.90
45685;DHT22;46836;48.388;16.210;2022-11-21T02:58:30;2.80;99.90
45685;DHT22;46836;48.388;16.210;2022-11-21T03:00:57;2.90;99.90
45685;DHT22;46836;48.388;16.210;2022-11-21T03:03:24;3.00;99.90
45685;DHT22;46836;48.388;16.210;2022-11-21T03:05:51;3.00;99.90
45685;DHT22;46836;48.388;16.210;2022-11-21T03:08:18;3.00;99.90
45685;DHT22;46836;48.388;16.210;2022-11-21T03:10:45;3.00;99.90
45685;DHT22;46836;48.388;16.210;2022-11-21T03:13:12;3.10;99.90
45685;DHT22;46836;48.388;16.210;2022-11-21T03:15:40;3.10;99.90
45685;DHT22;46836;48.388;16.210;2022-11-21T03:18:07;3.20;99.90
45685;DHT22;46836;48.388;16.210;2022-11-21T03:20:34;3.20;99.90
45685;DHT22;46836;48.388;16.210;2022-11-21T03:23:01;3.20;99.90
45685;DHT22;46836;48.388;16.210;2022-11-21T03:25:29;3.20;99.90
45685;DHT22;46836;48.388;16.210;2022-11-21T03:27:57;3.20;99.90
45685;DHT22;46836;48.388;16.210;2022-11-21T03:30:25;3.20;99.90
45685;DHT22;46836;48.388;16.210;2022-11-21T03:32:57;3.30;99.90
45685;DHT22;46836;48.388;16.210;2022-11-21T03:35:25;3.30;99.90
45685;DHT22;46836;48.388;16.210;2022-11-21T03:37:52;3.30;99.90
45685;DHT22;46836;48.388;16.210;2022-11-21T03:40:19;3.30;99.90
45685;DHT22;46836;48.388;16.210;2022-11-21T03:42:46;3.30;99.90
45685;DHT22;46836;48.388;16.210;2022-11-21T03:45:13;3.30;99.90
45685;DHT22;46836;48.388;16.210;2022-11-21T03:47:40;3.30;99.90
45685;DHT22;46836;48.388;16.210;2022-11-21T03:50:07;3.20;99.90
45685;DHT22;46836;48.388;16.210;2022-11-21T03:52:35;3.30;99.90
45685;DHT22;46836;48.388;16.210;2022-11-21T03:55:02;3.20;99.90
45685;DHT22;46836;48.388;16.210;2022-11-21T03:57:29;3.20;99.90
45685;DHT22;46836;48.388;16.210;2022-11-21T03:59:56;3.30;99.90
45685;DHT22;46836;48.388;16.210;2022-11-21T04:02:23;3.30;99.90
45685;DHT22;46836;48.388;16.210;2022-11-21T04:04:50;3.30;99.90
45685;DHT22;46836;48.388;16.210;2022-11-21T04:07:17;3.30;99.90
45685;DHT22;46836;48.388;16.210;2022-11-21T04:09:44;3.40;99.90
45685;DHT22;46836;48.388;16.210;2022-11-21T04:12:11;3.40;99.90
45685;DHT22;46836;48.388;16.210;2022-11-21T04:14:38;3.50;99.90
45685;DHT22;46836;48.388;16.210;2022-11-21T04:17:05;3.50;99.90
45685;DHT22;46836;48.388;16.210;2022-11-21T04:19:32;3.50;99.90
45685;DHT22;46836;48.388;16.210;2022-11-21T04:21:59;3.50;99.90
45685;DHT22;46836;48.388;16.210;2022-11-21T04:24:26;3.60;99.90
45685;DHT22;46836;48.388;16.210;2022-11-21T04:26:54;3.60;99.90
45685;DHT22;46836;48.388;16.210;2022-11-21T04:29:21;3.60;99.90
45685;DHT22;46836;48.388;16.210;2022-11-21T04:31:48;3.60;99.90
45685;DHT22;46836;48.388;16.210;2022-11-21T04:34:15;3.60;99.90
45685;DHT22;46836;48.388;16.210;2022-11-21T04:36:42;3.60;99.90
45685;DHT22;46836;48.388;16.210;2022-11-21T04:39:09;3.70;99.90
45685;DHT22;46836;48.388;16.210;2022-11-21T04:41:36;3.70;99.90
45685;DHT22;46836;48.388;16.210;2022-11-21T04:44:03;3.80;99.90
45685;DHT22;46836;48.388;16.210;2022-11-21T04:46:30;3.80;99.90
45685;DHT22;46836;48.388;16.210;2022-11-21T04:48:57;3.80;99.90
45685;DHT22;46836;48.388;16.210;2022-11-21T04:51:24;3.80;99.90
45685;DHT22;46836;48.388;16.210;2022-11-21T04:53:51;3.80;99.90
45685;DHT22;46836;48.388;16.210;2022-11-21T04:56:18;3.90;99.90
45685;DHT22;46836;48.388;16.210;2022-11-21T04:58:45;3.80;99.90
45685;DHT22;46836;48.388;16.210;2022-11-21T05:01:12;3.90;99.90
45685;DHT22;46836;48.388;16.210;2022-11-21T05:03:39;3.90;99.90
45685;DHT22;46836;48.388;16.210;2022-11-21T05:06:06;4.00;99.90
45685;DHT22;46836;48.388;16.210;2022-11-21T05:08:33;4.00;99.90
45685;DHT22;46836;48.388;16.210;2022-11-21T05:11:00;4.10;99.90
45685;DHT22;46836;48.388;16.210;2022-11-21T05:13:46;4.10;99.90
45685;DHT22;46836;48.388;16.210;2022-11-21T05:16:13;4.10;99.90
45685;DHT22;46836;48.388;16.210;2022-11-21T05:18:40;4.10;99.90
45685;DHT22;46836;48.388;16.210;2022-11-21T05:21:07;4.10;99.90
45685;DHT22;46836;48.388;16.210;2022-11-21T05:23:34;4.20;99.90
45685;DHT22;46836;48.388;16.210;2022-11-21T05:26:01;4.20;99.90
45685;DHT22;46836;48.388;16.210;2022-11-21T05:28:28;4.20;99.90
45685;DHT22;46836;48.388;16.210;2022-11-21T05:30:55;4.20;99.90
45685;DHT22;46836;48.388;16.210;2022-11-21T05:33:22;4.30;99.90
45685;DHT22;46836;48.388;16.210;2022-11-21T05:35:49;4.30;99.90
45685;DHT22;46836;48.388;16.210;2022-11-21T05:38:16;4.30;99.90
45685;DHT22;46836;48.388;16.210;2022-11-21T05:40:43;4.30;99.90
45685;DHT22;46836;48.388;16.210;2022-11-21T05:43:11;4.40;99.90
45685;DHT22;46836;48.388;16.210;2022-11-21T05:45:57;4.40;99.90
45685;DHT22;46836;48.388;16.210;2022-11-21T05:48:24;4.40;99.90
45685;DHT22;46836;48.388;16.210;2022-11-21T05:50:51;4.40;99.90
45685;DHT22;46836;48.388;16.210;2022-11-21T05:53:18;4.50;99.90
45685;DHT22;46836;48.388;16.210;2022-11-21T05:55:45;4.50;99.90
45685;DHT22;46836;48.388;16.210;2022-11-21T05:58:13;4.50;99.90
45685;DHT22;46836;48.388;16.210;2022-11-21T06:00:40;4.50;99.90
45685;DHT22;46836;48.388;16.210;2022-11-21T06:03:09;4.50;99.90
45685;DHT22;46836;48.388;16.210;2022-11-21T06:06:02;4.50;99.90
45685;DHT22;46836;48.388;16.210;2022-11-21T06:08:35;4.60;99.90
45685;DHT22;46836;48.388;16.210;2022-11-21T06:11:04;4.60;99.90
45685;DHT22;46836;48.388;16.210;2022-11-21T06:13:32;4.60;99.90
45685;DHT22;46836;48.388;16.210;2022-11-21T06:18:38;4.70;99.90
45685;DHT22;46836;48.388;16.210;2022-11-21T06:21:16;4.70;99.90
45685;DHT22;46836;48.388;16.210;2022-11-21T06:23:44;4.70;99.90
45685;DHT22;46836;48.388;16.210;2022-11-21T06:26:14;4.80;99.90
45685;DHT22;46836;48.388;16.210;2022-11-21T06:28:43;4.80;99.90
45685;DHT22;46836;48.388;16.210;2022-11-21T06:31:13;4.80;99.90
45685;DHT22;46836;48.388;16.210;2022-11-21T06:33:41;4.90;99.90
45685;DHT22;46836;48.388;16.210;2022-11-21T06:36:13;5.00;99.90
45685;DHT22;46836;48.388;16.210;2022-11-21T06:38:42;5.00;99.90
45685;DHT22;46836;48.388;16.210;2022-11-21T06:43:41;5.10;99.90
45685;DHT22;46836;48.388;16.210;2022-11-21T06:46:09;5.20;99.90
45685;DHT22;46836;48.388;16.210;2022-11-21T06:48:37;5.20;99.90
45685;DHT22;46836;48.388;16.210;2022-11-21T06:51:05;5.30;99.90
45685;DHT22;46836;48.388;16.210;2022-11-21T06:53:33;5.30;99.90
45685;DHT22;46836;48.388;16.210;2022-11-21T06:56:01;5.40;99.90
45685;DHT22;46836;48.388;16.210;2022-11-21T06:58:28;5.50;99.90
45685;DHT22;46836;48.388;16.210;2022-11-21T07:00:56;5.60;99.90
45685;DHT22;46836;48.388;16.210;2022-11-21T07:03:23;5.70;99.90
45685;DHT22;46836;48.388;16.210;2022-11-21T07:05:50;5.70;99.90
45685;DHT22;46836;48.388;16.210;2022-11-21T07:08:18;5.80;99.90
45685;DHT22;46836;48.388;16.210;2022-11-21T07:10:47;5.80;99.90
45685;DHT22;46836;48.388;16.210;2022-11-21T07:13:34;5.80;99.90
45685;DHT22;46836;48.388;16.210;2022-11-21T07:16:09;5.90;99.90
45685;DHT22;46836;48.388;16.210;2022-11-21T07:18:36;5.90;99.90
45685;DHT22;46836;48.388;16.210;2022-11-21T07:21:04;5.90;99.90
45685;DHT22;46836;48.388;16.210;2022-11-21T07:23:32;5.90;99.90
45685;DHT22;46836;48.388;16.210;2022-11-21T07:26:01;5.90;99.90
45685;DHT22;46836;48.388;16.210;2022-11-21T07:28:29;5.90;99.90
45685;DHT22;46836;48.388;16.210;2022-11-21T07:30:57;6.00;99.90
45685;DHT22;46836;48.388;16.210;2022-11-21T07:33:25;6.00;99.90
45685;DHT22;46836;48.388;16.210;2022-11-21T07:35:57;6.00;99.90
45685;DHT22;46836;48.388;16.210;2022-11-21T07:38:25;6.10;99.90
45685;DHT22;46836;48.388;16.210;2022-11-21T07:40:52;6.10;99.90
45685;DHT22;46836;48.388;16.210;2022-11-21T07:43:22;6.20;99.90
45685;DHT22;46836;48.388;16.210;2022-11-21T07:45:48;6.20;99.90
45685;DHT22;46836;48.388;16.210;2022-11-21T07:48:15;6.30;99.90
45685;DHT22;46836;48.388;16.210;2022-11-21T07:50:43;6.40;99.90
45685;DHT22;46836;48.388;16.210;2022-11-21T07:53:10;6.40;99.90
45685;DHT22;46836;48.388;16.210;2022-11-21T07:55:37;6.40;99.90
45685;DHT22;46836;48.388;16.210;2022-11-21T07:58:09;6.50;99.90
45685;DHT22;46836;48.388;16.210;2022-11-21T08:00:38;6.50;99.90
45685;DHT22;46836;48.388;16.210;2022-11-21T08:03:06;6.60;99.90
45685;DHT22;46836;48.388;16.210;2022-11-21T08:05:37;6.60;99.90
45685;DHT22;46836;48.388;16.210;2022-11-21T08:08:05;6.70;99.90
45685;DHT22;46836;48.388;16.210;2022-11-21T08:10:36;6.80;99.90
45685;DHT22;46836;48.388;16.210;2022-11-21T08:13:04;6.80;99.90
45685;DHT22;46836;48.388;16.210;2022-11-21T08:15:31;6.90;99.90
45685;DHT22;46836;48.388;16.210;2022-11-21T08:18:05;7.00;99.90
45685;DHT22;46836;48.388;16.210;2022-11-21T08:20:32;7.00;99.90
45685;DHT22;46836;48.388;16.210;2022-11-21T08:22:59;7.10;99.90
45685;DHT22;46836;48.388;16.210;2022-11-21T08:25:26;7.10;99.90
45685;DHT22;46836;48.388;16.210;2022-11-21T08:27:57;7.20;99.90
45685;DHT22;46836;48.388;16.210;2022-11-21T08:30:26;7.20;99.90
45685;DHT22;46836;48.388;16.210;2022-11-21T08:32:53;7.30;99.90
45685;DHT22;46836;48.388;16.210;2022-11-21T08:35:20;7.30;99.90
45685;DHT22;46836;48.388;16.210;2022-11-21T08:37:47;7.40;99.90
45685;DHT22;46836;48.388;16.210;2022-11-21T08:40:14;7.40;99.90
45685;DHT22;46836;48.388;16.210;2022-11-21T08:42:41;7.40;99.90
45685;DHT22;46836;48.388;16.210;2022-11-21T08:45:08;7.50;99.90
45685;DHT22;46836;48.388;16.210;2022-11-21T08:47:35;7.60;99.90
45685;DHT22;46836;48.388;16.210;2022-11-21T08:50:02;7.60;99.90
45685;DHT22;46836;48.388;16.210;2022-11-21T08:52:34;7.70;99.90
45685;DHT22;46836;48.388;16.210;2022-11-21T08:55:01;7.70;99.90
45685;DHT22;46836;48.388;16.210;2022-11-21T08:57:28;7.80;99.90
45685;DHT22;46836;48.388;16.210;2022-11-21T08:59:57;7.80;99.90
45685;DHT22;46836;48.388;16.210;2022-11-21T09:02:24;7.90;99.90
45685;DHT22;46836;48.388;16.210;2022-11-21T09:04:51;7.90;99.90
45685;DHT22;46836;48.388;16.210;2022-11-21T09:07:19;8.00;99.90
45685;DHT22;46836;48.388;16.210;2022-11-21T09:09:46;8.10;99.90
45685;DHT22;46836;48.388;16.210;2022-11-21T09:12:13;8.20;99.90
45685;DHT22;46836;48.388;16.210;2022-11-21T09:14:40;8.20;99.90
45685;DHT22;46836;48.388;16.210;2022-11-21T09:17:25;8.30;99.90
45685;DHT22;46836;48.388;16.210;2022-11-21T09:20:11;8.30;99.90
45685;DHT22;46836;48.388;16.210;2022-11-21T09:22:39;8.40;99.90
45685;DHT22;46836;48.388;16.210;2022-11-21T09:25:06;8.50;99.90
45685;DHT22;46836;48.388;16.210;2022-11-21T09:27:33;8.60;99.90
45685;DHT22;46836;48.388;16.210;2022-11-21T09:30:00;8.70;99.90
45685;DHT22;46836;48.388;16.210;2022-11-21T09:32:27;8.80;99.90
45685;DHT22;46836;48.388;16.210;2022-11-21T09:34:54;9.00;99.90
45685;DHT22;46836;48.388;16.210;2022-11-21T09:37:21;9.10;99.90
45685;DHT22;46836;48.388;16.210;2022-11-21T09:39:48;9.20;99.90
45685;DHT22;46836;48.388;16.210;2022-11-21T09:45:02;9.20;99.90
45685;DHT22;46836;48.388;16.210;2022-11-21T09:47:50;9.10;99.90
45685;DHT22;46836;48.388;16.210;2022-11-21T09:50:24;9.20;99.90
45685;DHT22;46836;48.388;16.210;2022-11-21T09:53:11;9.20;99.90
45685;DHT22;46836;48.388;16.210;2022-11-21T09:55:46;9.30;99.90
45685;DHT22;46836;48.388;16.210;2022-11-21T09:58:39;9.50;99.90
45685;DHT22;46836;48.388;16.210;2022-11-21T10:01:11;9.60;99.90
45685;DHT22;46836;48.388;16.210;2022-11-21T10:03:42;9.80;99.90
45685;DHT22;46836;48.388;16.210;2022-11-21T10:06:20;9.90;99.90
45685;DHT22;46836;48.388;16.210;2022-11-21T10:08:56;9.90;99.90
45685;DHT22;46836;48.388;16.210;2022-11-21T10:20:40;10.20;99.90
45685;DHT22;46836;48.388;16.210;2022-11-21T10:25:55;10.30;99.90
45685;DHT22;46836;48.388;16.210;2022-11-21T10:31:12;10.10;99.90
45685;DHT22;46836;48.388;16.210;2022-11-21T10:33:41;10.10;99.90
45685;DHT22;46836;48.388;16.210;2022-11-21T10:38:40;9.90;99.90
45685;DHT22;46836;48.388;16.210;2022-11-21T10:41:53;9.80;99.90
45685;DHT22;46836;48.388;16.210;2022-11-21T10:44:25;9.70;99.90
45685;DHT22;46836;48.388;16.210;2022-11-21T10:47:26;9.70;99.90
45685;DHT22;46836;48.388;16.210;2022-11-21T10:52:49;9.70;99.90
45685;DHT22;46836;48.388;16.210;2022-11-21T10:55:17;9.70;99.90
45685;DHT22;46836;48.388;16.210;2022-11-21T10:57:46;9.60;99.90
45685;DHT22;46836;48.388;16.210;2022-11-21T11:00:15;9.50;99.90
45685;DHT22;46836;48.388;16.210;2022-11-21T11:02:59;9.40;99.90
45685;DHT22;46836;48.388;16.210;2022-11-21T11:05:35;9.30;99.90
45685;DHT22;46836;48.388;16.210;2022-11-21T11:10:45;9.20;99.90
45685;DHT22;46836;48.388;16.210;2022-11-21T11:13:28;9.30;99.90
45685;DHT22;46836;48.388;16.210;2022-11-21T11:16:16;9.30;99.90
45685;DHT22;46836;48.388;16.210;2022-11-21T11:19:01;9.30;99.90
45685;DHT22;46836;48.388;16.210;2022-11-21T11:21:41;9.40;99.90
45685;DHT22;46836;48.388;16.210;2022-11-21T11:29:17;9.50;99.90
45685;DHT22;46836;48.388;16.210;2022-11-21T11:34:38;9.40;99.90
45685;DHT22;46836;48.388;16.210;2022-11-21T11:37:56;9.30;99.90
45685;DHT22;46836;48.388;16.210;2022-11-21T11:46:26;9.00;99.90
45685;DHT22;46836;48.388;16.210;2022-11-21T11:49:11;9.00;99.90
45685;DHT22;46836;48.388;16.210;2022-11-21T11:51:52;9.00;99.90
45685;DHT22;46836;48.388;16.210;2022-11-21T11:54:26;9.00;99.90
45685;DHT22;46836;48.388;16.210;2022-11-21T11:56:56;9.00;99.90
45685;DHT22;46836;48.388;16.210;2022-11-21T11:59:36;9.00;99.90
45685;DHT22;46836;48.388;16.210;2022-11-21T12:02:28;8.80;99.90
45685;DHT22;46836;48.388;16.210;2022-11-21T12:05:10;8.90;99.90
45685;DHT22;46836;48.388;16.210;2022-11-21T12:07:46;8.90;99.90
45685;DHT22;46836;48.388;16.210;2022-11-21T12:10:58;8.90;99.90
45685;DHT22;46836;48.388;16.210;2022-11-21T12:13:52;8.90;99.90
45685;DHT22;46836;48.388;16.210;2022-11-21T12:16:21;9.00;99.90
45685;DHT22;46836;48.388;16.210;2022-11-21T12:21:20;9.40;99.90
45685;DHT22;46836;48.388;16.210;2022-11-21T12:23:54;9.50;99.90
45685;DHT22;46836;48.388;16.210;2022-11-21T12:26:44;9.50;99.90
45685;DHT22;46836;48.388;16.210;2022-11-21T12:43:35;9.70;99.90
45685;DHT22;46836;48.388;16.210;2022-11-21T13:00:24;9.50;99.90
45685;DHT22;46836;48.388;16.210;2022-11-21T13:05:49;9.50;99.90
45685;DHT22;46836;48.388;16.210;2022-11-21T13:08:24;9.50;99.90
45685;DHT22;46836;48.388;16.210;2022-11-21T13:17:06;9.30;99.90
45685;DHT22;46836;48.388;16.210;2022-11-21T13:27:40;9.10;99.90
45685;DHT22;46836;48.388;16.210;2022-11-21T13:32:43;9.10;99.90
45685;DHT22;46836;48.388;16.210;2022-11-21T13:38:03;9.10;99.90
45685;DHT22;46836;48.388;16.210;2022-11-21T13:40:36;9.10;99.90
45685;DHT22;46836;48.388;16.210;2022-11-21T13:45:59;9.00;99.90
45685;DHT22;46836;48.388;16.210;2022-11-21T14:07:40;8.70;99.90
45685;DHT22;46836;48.388;16.210;2022-11-21T14:12:54;8.60;99.90
45685;DHT22;46836;48.388;16.210;2022-11-21T14:15:37;8.50;99.90
45685;DHT22;46836;48.388;16.210;2022-11-21T14:18:23;8.50;99.90
45685;DHT22;46836;48.388;16.210;2022-11-21T14:20:53;8.40;99.90
45685;DHT22;46836;48.388;16.210;2022-11-21T14:23:29;8.40;99.90
45685;DHT22;46836;48.388;16.210;2022-11-21T14:26:15;8.30;99.90
45685;DHT22;46836;48.388;16.210;2022-11-21T14:28:45;8.30;99.90
45685;DHT22;46836;48.388;16.210;2022-11-21T14:31:13;8.20;99.90
45685;DHT22;46836;48.388;16.210;2022-11-21T14:33:41;8.20;99.90
45685;DHT22;46836;48.388;16.210;2022-11-21T14:38:50;8.10;99.90
45685;DHT22;46836;48.388;16.210;2022-11-21T14:41:38;8.10;99.90
45685;DHT22;46836;48.388;16.210;2022-11-21T14:44:14;8.00;99.90
45685;DHT22;46836;48.388;16.210;2022-11-21T14:46:42;8.00;99.90
45685;DHT22;46836;48.388;16.210;2022-11-21T14:51:47;7.90;99.90
45685;DHT22;46836;48.388;16.210;2022-11-21T14:54:32;7.90;99.90
45685;DHT22;46836;48.388;16.210;2022-11-21T14:57:06;7.90;99.90
45685;DHT22;46836;48.388;16.210;2022-11-21T14:59:40;7.90;99.90
45685;DHT22;46836;48.388;16.210;2022-11-21T15:04:42;7.80;99.90
45685;DHT22;46836;48.388;16.210;2022-11-21T15:07:23;7.70;99.90
45685;DHT22;46836;48.388;16.210;2022-11-21T15:10:01;7.70;99.90
45685;DHT22;46836;48.388;16.210;2022-11-21T15:12:55;7.60;99.90
45685;DHT22;46836;48.388;16.210;2022-11-21T15:15:35;7.50;99.90
45685;DHT22;46836;48.388;16.210;2022-11-21T15:18:06;7.50;99.90
45685;DHT22;46836;48.388;16.210;2022-11-21T15:21:01;7.40;99.90
45685;DHT22;46836;48.388;16.210;2022-11-21T15:23:35;7.40;99.90
45685;DHT22;46836;48.388;16.210;2022-11-21T15:26:23;7.30;99.90
45685;DHT22;46836;48.388;16.210;2022-11-21T15:28:55;7.30;99.90
45685;DHT22;46836;48.388;16.210;2022-11-21T15:31:22;7.20;99.90
45685;DHT22;46836;48.388;16.210;2022-11-21T15:34:03;7.20;99.90
45685;DHT22;46836;48.388;16.210;2022-11-21T15:37:05;7.10;99.90
45685;DHT22;46836;48.388;16.210;2022-11-21T15:39:42;7.00;99.90
45685;DHT22;46836;48.388;16.210;2022-11-21T15:45:22;7.00;99.90
45685;DHT22;46836;48.388;16.210;2022-11-21T15:47:48;6.90;99.90
45685;DHT22;46836;48.388;16.210;2022-11-21T15:50:15;6.90;99.90
45685;DHT22;46836;48.388;16.210;2022-11-21T15:52:47;6.80;99.90
45685;DHT22;46836;48.388;16.210;2022-11-21T15:55:24;6.80;99.90
45685;DHT22;46836;48.388;16.210;2022-11-21T15:57:52;6.70;99.90
45685;DHT22;46836;48.388;16.210;2022-11-21T16:00:19;6.70;99.90
45685;DHT22;46836;48.388;16.210;2022-11-21T16:02:46;6.70;99.90
45685;DHT22;46836;48.388;16.210;2022-11-21T16:05:14;6.70;99.90
45685;DHT22;46836;48.388;16.210;2022-11-21T16:07:41;6.60;99.90
45685;DHT22;46836;48.388;16.210;2022-11-21T16:10:09;6.60;99.90
45685;DHT22;46836;48.388;16.210;2022-11-21T16:12:48;6.60;99.90
45685;DHT22;46836;48.388;16.210;2022-11-21T16:15:15;6.50;99.90
45685;DHT22;46836;48.388;16.210;2022-11-21T16:17:42;6.50;99.90
45685;DHT22;46836;48.388;16.210;2022-11-21T16:20:13;6.50;99.90
45685;DHT22;46836;48.388;16.210;2022-11-21T16:22:40;6.50;99.90
45685;DHT22;46836;48.388;16.210;2022-11-21T16:25:13;6.50;99.90
45685;DHT22;46836;48.388;16.210;2022-11-21T16:27:41;6.50;99.90
45685;DHT22;46836;48.388;16.210;2022-11-21T16:30:08;6.40;99.90
45685;DHT22;46836;48.388;16.210;2022-11-21T16:32:36;6.40;99.90
45685;DHT22;46836;48.388;16.210;2022-11-21T16:35:04;6.40;99.90
45685;DHT22;46836;48.388;16.210;2022-11-21T16:37:32;6.30;99.90
45685;DHT22;46836;48.388;16.210;2022-11-21T16:40:00;6.30;99.90
45685;DHT22;46836;48.388;16.210;2022-11-21T16:42:28;6.30;99.90
45685;DHT22;46836;48.388;16.210;2022-11-21T16:44:55;6.20;99.90
45685;DHT22;46836;48.388;16.210;2022-11-21T16:47:23;6.20;99.90
45685;DHT22;46836;48.388;16.210;2022-11-21T16:49:50;6.20;99.90
45685;DHT22;46836;48.388;16.210;2022-11-21T16:52:18;6.10;99.90
45685;DHT22;46836;48.388;16.210;2022-11-21T16:54:45;6.10;99.90
45685;DHT22;46836;48.388;16.210;2022-11-21T16:57:13;6.00;99.90
45685;DHT22;46836;48.388;16.210;2022-11-21T16:59:40;6.00;99.90
45685;DHT22;46836;48.388;16.210;2022-11-21T17:02:09;6.00;99.90
45685;DHT22;46836;48.388;16.210;2022-11-21T17:04:36;5.90;99.90
45685;DHT22;46836;48.388;16.210;2022-11-21T17:07:03;5.80;99.90
45685;DHT22;46836;48.388;16.210;2022-11-21T17:09:31;5.80;99.90
45685;DHT22;46836;48.388;16.210;2022-11-21T17:11:58;5.70;99.90
45685;DHT22;46836;48.388;16.210;2022-11-21T17:14:25;5.70;99.90
45685;DHT22;46836;48.388;16.210;2022-11-21T17:16:53;5.60;99.90
45685;DHT22;46836;48.388;16.210;2022-11-21T17:19:21;5.60;99.90
45685;DHT22;46836;48.388;16.210;2022-11-21T17:21:49;5.50;99.90
45685;DHT22;46836;48.388;16.210;2022-11-21T17:24:16;5.50;99.90
45685;DHT22;46836;48.388;16.210;2022-11-21T17:26:44;5.50;99.90
45685;DHT22;46836;48.388;16.210;2022-11-21T17:29:11;5.40;99.90
45685;DHT22;46836;48.388;16.210;2022-11-21T17:31:40;5.40;99.90
45685;DHT22;46836;48.388;16.210;2022-11-21T17:34:09;5.30;99.90
45685;DHT22;46836;48.388;16.210;2022-11-21T17:36:36;5.20;99.90
45685;DHT22;46836;48.388;16.210;2022-11-21T17:39:04;5.10;99.90
45685;DHT22;46836;48.388;16.210;2022-11-21T17:41:32;5.10;99.90
45685;DHT22;46836;48.388;16.210;2022-11-21T17:44:00;5.10;99.90
45685;DHT22;46836;48.388;16.210;2022-11-21T17:46:28;5.10;99.90
45685;DHT22;46836;48.388;16.210;2022-11-21T17:48:56;5.10;99.90
45685;DHT22;46836;48.388;16.210;2022-11-21T17:51:32;5.10;99.90
45685;DHT22;46836;48.388;16.210;2022-11-21T17:54:01;5.10;99.90
45685;DHT22;46836;48.388;16.210;2022-11-21T17:56:31;5.10;99.90
45685;DHT22;46836;48.388;16.210;2022-11-21T17:58:59;5.00;99.90
45685;DHT22;46836;48.388;16.210;2022-11-21T18:01:27;5.00;99.90
45685;DHT22;46836;48.388;16.210;2022-11-21T18:03:57;4.90;99.90
45685;DHT22;46836;48.388;16.210;2022-11-21T18:06:27;4.90;99.90
45685;DHT22;46836;48.388;16.210;2022-11-21T18:08:55;4.90;99.90